sensor_id;sensor_type;location;lat;lon;timestamp;P1;durP1;ratioP1;P2;durP2;ratioP2
71955;SDS011;59829;50.562;6.258;2024-02-04T00:01:53;1.40;;;0.77;;
71955;SDS011;59829;50.562;6.258;2024-02-04T00:11:53;1.83;;;0.90;;
71955;SDS011;59829;50.562;6.258;2024-02-04T00:21:53;1.52;;;0.73;;
71955;SDS011;59829;50.562;6.258;2024-02-04T00:31:54;1.83;;;0.68;;
71955;SDS011;59829;50.562;6.258;2024-02-04T00:41:54;1.80;;;0.63;;
71955;SDS011;59829;50.562;6.258;2024-02-04T00:51:54;1.20;;;0.77;;
71955;SDS011;59829;50.562;6.258;2024-02-04T01:01:54;0.82;;;0.47;;
71955;SDS011;59829;50.562;6.258;2024-02-04T01:11:55;0.80;;;0.40;;
71955;SDS011;59829;50.562;6.258;2024-02-04T01:21:56;0.50;;;0.30;;
71955;SDS011;59829;50.562;6.258;2024-02-04T01:31:58;0.63;;;0.40;;
71955;SDS011;59829;50.562;6.258;2024-02-04T01:41:58;0.88;;;0.28;;
71955;SDS011;59829;50.562;6.258;2024-02-04T01:51:58;0.70;;;0.30;;
71955;SDS011;59829;50.562;6.258;2024-02-04T02:02:00;0.50;;;0.20;;
71955;SDS011;59829;50.562;6.258;2024-02-04T02:12:01;0.55;;;0.20;;
71955;SDS011;59829;50.562;6.258;2024-02-04T02:22:17;0.30;;;0.10;;
71955;SDS011;59829;50.562;6.258;2024-02-04T02:32:32;0.20;;;0.10;;
71955;SDS011;59829;50.562;6.258;2024-02-04T02:42:32;0.30;;;0.10;;
71955;SDS011;59829;50.562;6.258;2024-02-04T02:52:34;0.20;;;0.10;;
71955;SDS011;59829;50.562;6.258;2024-02-04T03:02:34;0.00;;;0.00;;
71955;SDS011;59829;50.562;6.258;2024-02-04T03:12:35;0.20;;;0.10;;
71955;SDS011;59829;50.562;6.258;2024-02-04T03:22:35;0.10;;;0.10;;
71955;SDS011;59829;50.562;6.258;2024-02-04T03:32:35;0.00;;;0.00;;
71955;SDS011;59829;50.562;6.258;2024-02-04T03:42:35;0.10;;;0.00;;
71955;SDS011;59829;50.562;6.258;2024-02-04T03:52:36;0.00;;;0.00;;
71955;SDS011;59829;50.562;6.258;2024-02-04T04:02:36;0.05;;;0.00;;
71955;SDS011;59829;50.562;6.258;2024-02-04T04:12:37;0.00;;;0.00;;
71955;SDS011;59829;50.562;6.258;2024-02-04T04:22:40;0.10;;;0.00;;
71955;SDS011;59829;50.562;6.258;2024-02-04T04:32:41;0.00;;;0.00;;
71955;SDS011;59829;50.562;6.258;2024-02-04T04:42:41;0.00;;;0.00;;
71955;SDS011;59829;50.562;6.258;2024-02-04T04:52:41;0.05;;;0.00;;
71955;SDS011;59829;50.562;6.258;2024-02-04T05:02:42;0.00;;;0.00;;
71955;SDS011;59829;50.562;6.258;2024-02-04T05:12:45;0.00;;;0.00;;
71955;SDS011;59829;50.562;6.258;2024-02-04T05:22:46;0.00;;;0.00;;
71955;SDS011;59829;50.562;6.258;2024-02-04T05:32:46;0.20;;;0.00;;
71955;SDS011;59829;50.562;6.258;2024-02-04T05:42:46;0.10;;;0.00;;
71955;SDS011;59829;50.562;6.258;2024-02-04T05:52:47;0.00;;;0.00;;
71955;SDS011;59829;50.562;6.258;2024-02-04T06:02:47;0.00;;;0.00;;
71955;SDS011;59829;50.562;6.258;2024-02-04T06:12:47;0.00;;;0.00;;
71955;SDS011;59829;50.562;6.258;2024-02-04T06:22:48;0.00;;;0.00;;
71955;SDS011;59829;50.562;6.258;2024-02-04T06:32:48;0.00;;;0.00;;
71955;SDS011;59829;50.562;6.258;2024-02-04T06:42:51;0.00;;;0.00;;
71955;SDS011;59829;50.562;6.258;2024-02-04T06:52:52;0.00;;;0.00;;
71955;SDS011;59829;50.562;6.258;2024-02-04T07:02:52;0.00;;;0.00;;
71955;SDS011;59829;50.562;6.258;2024-02-04T07:12:52;0.13;;;0.00;;
71955;SDS011;59829;50.562;6.258;2024-02-04T07:22:53;0.00;;;0.00;;
71955;SDS011;59829;50.562;6.258;2024-02-04T07:32:53;0.00;;;0.00;;
71955;SDS011;59829;50.562;6.258;2024-02-04T07:42:53;0.08;;;0.00;;
71955;SDS011;59829;50.562;6.258;2024-02-04T07:52:54;0.08;;;0.00;;
71955;SDS011;59829;50.562;6.258;2024-02-04T08:02:55;0.00;;;0.00;;
71955;SDS011;59829;50.562;6.258;2024-02-04T08:12:55;0.00;;;0.00;;
71955;SDS011;59829;50.562;6.258;2024-02-04T08:22:55;0.00;;;0.00;;
71955;SDS011;59829;50.562;6.258;2024-02-04T08:32:56;0.08;;;0.00;;
71955;SDS011;59829;50.562;6.258;2024-02-04T08:42:57;0.00;;;0.00;;
71955;SDS011;59829;50.562;6.258;2024-02-04T08:52:57;0.00;;;0.00;;
71955;SDS011;59829;50.562;6.258;2024-02-04T09:02:58;0.17;;;0.00;;
71955;SDS011;59829;50.562;6.258;2024-02-04T09:12:58;0.00;;;0.00;;
71955;SDS011;59829;50.562;6.258;2024-02-04T09:22:58;0.00;;;0.00;;
71955;SDS011;59829;50.562;6.258;2024-02-04T09:32:58;0.00;;;0.00;;
71955;SDS011;59829;50.562;6.258;2024-02-04T09:42:59;0.55;;;0.00;;
71955;SDS011;59829;50.562;6.258;2024-02-04T09:53:00;0.00;;;0.00;;
71955;SDS011;59829;50.562;6.258;2024-02-04T10:03:03;0.00;;;0.00;;
71955;SDS011;59829;50.562;6.258;2024-02-04T10:13:07;0.00;;;0.00;;
71955;SDS011;59829;50.562;6.258;2024-02-04T10:23:08;0.55;;;0.00;;
71955;SDS011;59829;50.562;6.258;2024-02-04T10:33:09;0.30;;;0.00;;
71955;SDS011;59829;50.562;6.258;2024-02-04T10:43:09;0.10;;;0.00;;
71955;SDS011;59829;50.562;6.258;2024-02-04T10:53:11;1.48;;;0.55;;
71955;SDS011;59829;50.562;6.258;2024-02-04T11:03:14;1.30;;;0.70;;
71955;SDS011;59829;50.562;6.258;2024-02-04T11:13:15;1.55;;;0.70;;
71955;SDS011;59829;50.562;6.258;2024-02-04T11:33:39;0.70;;;0.30;;
71955;SDS011;59829;50.562;6.258;2024-02-04T11:43:39;0.50;;;0.30;;
71955;SDS011;59829;50.562;6.258;2024-02-04T11:53:40;0.55;;;0.30;;
71955;SDS011;59829;50.562;6.258;2024-02-04T12:03:40;1.35;;;0.20;;
71955;SDS011;59829;50.562;6.258;2024-02-04T12:13:40;0.17;;;0.17;;
71955;SDS011;59829;50.562;6.258;2024-02-04T12:23:42;1.05;;;0.45;;
71955;SDS011;59829;50.562;6.258;2024-02-04T12:33:43;1.10;;;0.40;;
71955;SDS011;59829;50.562;6.258;2024-02-04T12:43:48;1.15;;;0.40;;
71955;SDS011;59829;50.562;6.258;2024-02-04T12:53:49;4.03;;;0.50;;
71955;SDS011;59829;50.562;6.258;2024-02-04T13:03:50;1.27;;;0.30;;
71955;SDS011;59829;50.562;6.258;2024-02-04T13:13:50;0.82;;;0.20;;
71955;SDS011;59829;50.562;6.258;2024-02-04T13:23:51;0.70;;;0.20;;
71955;SDS011;59829;50.562;6.258;2024-02-04T13:33:51;1.73;;;0.60;;
71955;SDS011;59829;50.562;6.258;2024-02-04T13:43:52;2.10;;;0.70;;
71955;SDS011;59829;50.562;6.258;2024-02-04T13:53:52;2.30;;;0.60;;
71955;SDS011;59829;50.562;6.258;2024-02-04T14:03:52;3.13;;;0.82;;
71955;SDS011;59829;50.562;6.258;2024-02-04T14:13:52;4.95;;;0.60;;
71955;SDS011;59829;50.562;6.258;2024-02-04T14:23:53;3.70;;;0.95;;
71955;SDS011;59829;50.562;6.258;2024-02-04T14:33:53;4.05;;;0.60;;
71955;SDS011;59829;50.562;6.258;2024-02-04T14:43:53;3.30;;;0.47;;
71955;SDS011;59829;50.562;6.258;2024-02-04T14:53:54;3.60;;;0.88;;
71955;SDS011;59829;50.562;6.258;2024-02-04T15:03:54;2.53;;;0.40;;
71955;SDS011;59829;50.562;6.258;2024-02-04T15:13:54;1.30;;;0.28;;
71955;SDS011;59829;50.562;6.258;2024-02-04T15:23:56;2.45;;;0.40;;
71955;SDS011;59829;50.562;6.258;2024-02-04T15:33:56;1.30;;;0.40;;
71955;SDS011;59829;50.562;6.258;2024-02-04T15:43:57;0.85;;;0.40;;
71955;SDS011;59829;50.562;6.258;2024-02-04T15:53:57;3.75;;;0.70;;
71955;SDS011;59829;50.562;6.258;2024-02-04T16:03:57;3.10;;;0.47;;
71955;SDS011;59829;50.562;6.258;2024-02-04T16:13:58;0.55;;;0.17;;
71955;SDS011;59829;50.562;6.258;2024-02-04T16:24:02;1.40;;;0.30;;
71955;SDS011;59829;50.562;6.258;2024-02-04T16:34:02;1.08;;;0.15;;
71955;SDS011;59829;50.562;6.258;2024-02-04T16:44:02;1.15;;;0.20;;
71955;SDS011;59829;50.562;6.258;2024-02-04T16:54:03;1.83;;;0.20;;
71955;SDS011;59829;50.562;6.258;2024-02-04T17:04:03;2.43;;;0.20;;
71955;SDS011;59829;50.562;6.258;2024-02-04T17:14:05;2.63;;;0.20;;
71955;SDS011;59829;50.562;6.258;2024-02-04T17:24:15;0.75;;;0.22;;
71955;SDS011;59829;50.562;6.258;2024-02-04T17:34:21;0.65;;;0.15;;
71955;SDS011;59829;50.562;6.258;2024-02-04T17:44:21;0.40;;;0.00;;
71955;SDS011;59829;50.562;6.258;2024-02-04T17:54:21;3.08;;;0.28;;
71955;SDS011;59829;50.562;6.258;2024-02-04T18:04:25;0.17;;;0.03;;
71955;SDS011;59829;50.562;6.258;2024-02-04T18:14:25;0.82;;;0.22;;
71955;SDS011;59829;50.562;6.258;2024-02-04T18:24:25;0.80;;;0.10;;
71955;SDS011;59829;50.562;6.258;2024-02-04T18:34:26;0.20;;;0.10;;
71955;SDS011;59829;50.562;6.258;2024-02-04T18:44:26;0.10;;;0.00;;
71955;SDS011;59829;50.562;6.258;2024-02-04T18:54:26;0.15;;;0.00;;
71955;SDS011;59829;50.562;6.258;2024-02-04T19:04:27;0.23;;;0.10;;
71955;SDS011;59829;50.562;6.258;2024-02-04T19:14:28;0.30;;;0.08;;
71955;SDS011;59829;50.562;6.258;2024-02-04T19:24:29;0.63;;;0.00;;
71955;SDS011;59829;50.562;6.258;2024-02-04T19:34:29;0.50;;;0.00;;
71955;SDS011;59829;50.562;6.258;2024-02-04T19:44:29;0.47;;;0.20;;
71955;SDS011;59829;50.562;6.258;2024-02-04T19:54:29;0.57;;;0.38;;
71955;SDS011;59829;50.562;6.258;2024-02-04T20:04:30;0.13;;;0.10;;
71955;SDS011;59829;50.562;6.258;2024-02-04T20:14:30;2.42;;;0.30;;
71955;SDS011;59829;50.562;6.258;2024-02-04T20:24:30;0.80;;;0.20;;
71955;SDS011;59829;50.562;6.258;2024-02-04T20:34:31;5.07;;;0.68;;
71955;SDS011;59829;50.562;6.258;2024-02-04T20:44:31;1.15;;;0.28;;
71955;SDS011;59829;50.562;6.258;2024-02-04T20:54:31;0.90;;;0.38;;
71955;SDS011;59829;50.562;6.258;2024-02-04T21:04:31;0.20;;;0.10;;
71955;SDS011;59829;50.562;6.258;2024-02-04T21:14:32;0.50;;;0.10;;
71955;SDS011;59829;50.562;6.258;2024-02-04T21:24:32;0.30;;;0.00;;
71955;SDS011;59829;50.562;6.258;2024-02-04T21:34:32;1.00;;;0.10;;
71955;SDS011;59829;50.562;6.258;2024-02-04T21:44:33;0.60;;;0.17;;
71955;SDS011;59829;50.562;6.258;2024-02-04T21:54:33;0.28;;;0.10;;
71955;SDS011;59829;50.562;6.258;2024-02-04T22:04:34;1.40;;;0.60;;
71955;SDS011;59829;50.562;6.258;2024-02-04T22:14:34;0.68;;;0.47;;
71955;SDS011;59829;50.562;6.258;2024-02-04T22:24:35;2.28;;;0.30;;
71955;SDS011;59829;50.562;6.258;2024-02-04T22:34:35;1.20;;;0.47;;
71955;SDS011;59829;50.562;6.258;2024-02-04T22:44:36;0.40;;;0.20;;
71955;SDS011;59829;50.562;6.258;2024-02-04T22:54:37;1.92;;;0.93;;
71955;SDS011;59829;50.562;6.258;2024-02-04T23:04:39;2.33;;;1.03;;
71955;SDS011;59829;50.562;6.258;2024-02-04T23:14:39;2.13;;;0.50;;
71955;SDS011;59829;50.562;6.258;2024-02-04T23:24:40;1.00;;;0.63;;
71955;SDS011;59829;50.562;6.258;2024-02-04T23:34:40;1.30;;;0.50;;
71955;SDS011;59829;50.562;6.258;2024-02-04T23:44:40;1.30;;;0.50;;
71955;SDS011;59829;50.562;6.258;2024-02-04T23:54:40;1.25;;;0.60;;
